Time;durP1;ratioP1;P1;durP2;ratioP2;P2;SDS_P1;SDS_P2;PMS_P1;PMS_P2;Temp;Humidity;BMP_temperature;BMP_pressure;BME280_temperature;BME280_humidity;BME280_pressure;Samples;Min_cycle;Max_cycle;Signal;HPM_P1;HPM_P2
2021/06/17 00:00:19;;;;;;;12.07;10.63;;;21.60;99.90;;;;;;5072274;28;20462;-74
2021/06/17 00:02:46;;;;;;;12.57;10.05;;;21.50;99.90;;;;;;5072234;28;20373;-74
2021/06/17 00:05:15;;;;;;;14.50;10.25;;;21.40;99.90;;;;;;5073397;28;20369;-74
2021/06/17 00:07:41;;;;;;;15.57;10.52;;;21.20;99.90;;;;;;5073685;28;20111;-74
2021/06/17 00:10:10;;;;;;;12.88;10.60;;;21.20;99.90;;;;;;5071892;28;20083;-74
2021/06/17 00:12:36;;;;;;;19.65;11.38;;;21.30;99.90;;;;;;5088672;28;20029;-74
2021/06/17 00:15:04;;;;;;;11.65;10.50;;;21.30;99.90;;;;;;5073474;28;20048;-74
2021/06/17 00:17:29;;;;;;;12.63;11.10;;;21.20;99.90;;;;;;5073565;28;20020;-73
2021/06/17 00:19:55;;;;;;;14.40;10.57;;;21.20;99.90;;;;;;5073494;28;20021;-74
2021/06/17 00:22:20;;;;;;;11.55;10.23;;;21.20;99.90;;;;;;5073235;28;20025;-73
2021/06/17 00:24:46;;;;;;;11.18;9.98;;;21.20;99.90;;;;;;5072963;28;20029;-73
2021/06/17 00:27:11;;;;;;;11.30;10.18;;;21.10;99.90;;;;;;5073432;28;20470;-74
2021/06/17 00:29:37;;;;;;;11.77;10.18;;;21.00;99.90;;;;;;5071997;28;20025;-74
2021/06/17 00:32:03;;;;;;;11.88;10.73;;;21.00;99.90;;;;;;5071973;28;20036;-74
2021/06/17 00:34:29;;;;;;;13.35;10.52;;;21.00;99.90;;;;;;5071751;28;20131;-75
2021/06/17 00:36:54;;;;;;;15.70;10.38;;;21.00;99.90;;;;;;5072855;28;20060;-74
2021/06/17 00:39:20;;;;;;;11.60;10.07;;;20.90;99.90;;;;;;5073390;28;20021;-74
2021/06/17 00:41:45;;;;;;;16.60;10.60;;;20.80;99.90;;;;;;5073823;28;20033;-74
2021/06/17 00:44:11;;;;;;;13.05;10.88;;;20.70;99.90;;;;;;5075253;28;20119;-74
2021/06/17 00:46:37;;;;;;;11.55;10.32;;;20.70;99.90;;;;;;5076937;28;20488;-75
2021/06/17 00:49:05;;;;;;;11.82;10.63;;;20.70;99.90;;;;;;5075935;28;20024;-74
2021/06/17 00:51:31;;;;;;;11.40;10.30;;;20.70;99.90;;;;;;5076805;28;20189;-74
2021/06/17 00:53:56;;;;;;;13.20;10.80;;;20.60;99.90;;;;;;5075074;28;20107;-74
2021/06/17 00:56:23;;;;;;;11.60;10.40;;;20.60;99.90;;;;;;5076403;28;20126;-74
2021/06/17 00:58:51;;;;;;;13.10;10.35;;;20.50;99.90;;;;;;5076655;28;20150;-74
2021/06/17 01:01:17;;;;;;;14.88;10.88;;;20.50;99.90;;;;;;5075204;28;20103;-74
2021/06/17 01:03:42;;;;;;;13.50;10.75;;;20.50;99.90;;;;;;5075170;28;20418;-74
2021/06/17 01:06:09;;;;;;;13.23;10.63;;;20.40;99.90;;;;;;5076588;28;20029;-74
2021/06/17 01:09:01;;;;;;;14.40;10.20;;;20.30;99.90;;;;;;5076515;28;20017;-74
2021/06/17 01:11:51;;;;;;;13.95;10.93;;;20.30;99.90;;;;;;5076450;28;20437;-74
2021/06/17 01:14:23;;;;;;;11.65;10.45;;;20.20;99.90;;;;;;5075675;28;20039;-74
2021/06/17 01:16:56;;;;;;;13.80;11.05;;;20.20;99.90;;;;;;5091639;28;20412;-74
2021/06/17 01:19:35;;;;;;;;;;;20.20;99.90;;;;;;5076796;28;20074;-74
2021/06/17 01:22:18;;;;;;;11.50;10.27;;;20.20;99.90;;;;;;5076025;28;20361;-74
2021/06/17 01:25:23;;;;;;;15.18;10.95;;;20.20;99.90;;;;;;5075961;28;20074;-74
2021/06/17 01:28:12;;;;;;;13.35;10.68;;;20.10;99.90;;;;;;5075471;28;20039;-73
2021/06/17 01:30:58;;;;;;;14.10;10.60;;;20.10;99.90;;;;;;5075539;28;20020;-74
2021/06/17 01:33:27;;;;;;;16.20;11.00;;;20.10;99.90;;;;;;5074901;28;20044;-74
2021/06/17 01:35:58;;;;;;;14.10;11.38;;;20.10;99.90;;;;;;5075240;28;20036;-73
2021/06/17 01:38:26;;;;;;;12.15;10.75;;;20.20;99.90;;;;;;5090973;28;20035;-74
2021/06/17 01:40:52;;;;;;;13.70;11.27;;;20.20;99.90;;;;;;5075686;28;20028;-74
2021/06/17 01:43:20;;;;;;;14.10;10.82;;;20.20;99.90;;;;;;5075581;28;20108;-74
2021/06/17 01:45:47;;;;;;;13.63;11.50;;;20.20;99.90;;;;;;5074342;28;20033;-74
2021/06/17 01:48:13;;;;;;;14.70;11.63;;;20.30;99.90;;;;;;5075733;28;20020;-74
2021/06/17 01:50:38;;;;;;;13.32;10.98;;;20.20;99.90;;;;;;5075718;28;20103;-74
2021/06/17 01:53:05;;;;;;;14.60;11.25;;;20.30;99.90;;;;;;5075679;28;20063;-74
2021/06/17 01:55:35;;;;;;;15.52;11.45;;;20.20;99.90;;;;;;5074140;28;20029;-73
2021/06/17 01:58:07;;;;;;;12.88;10.80;;;20.20;99.90;;;;;;5090574;28;20473;-74
2021/06/17 02:00:35;;;;;;;15.02;11.73;;;20.10;99.90;;;;;;5075481;28;20025;-74
2021/06/17 02:03:04;;;;;;;22.10;12.38;;;20.10;99.90;;;;;;5075444;28;20069;-74
2021/06/17 02:05:30;;;;;;;12.23;10.98;;;20.10;99.90;;;;;;5073968;28;20068;-74
2021/06/17 02:07:59;;;;;;;15.82;11.68;;;20.00;99.90;;;;;;5075341;28;20411;-74
2021/06/17 02:10:26;;;;;;;14.88;11.82;;;20.00;99.90;;;;;;5075316;28;20027;-74
2021/06/17 02:12:52;;;;;;;17.10;11.88;;;20.00;99.90;;;;;;5075539;28;20052;-74
2021/06/17 02:15:19;;;;;;;13.95;11.80;;;20.00;99.90;;;;;;5075182;28;20458;-74
2021/06/17 02:17:47;;;;;;;14.00;12.30;;;20.10;99.90;;;;;;5074008;28;20021;-74
2021/06/17 02:20:14;;;;;;;18.17;12.43;;;20.10;99.90;;;;;;5074553;28;20469;-74
2021/06/17 02:22:44;;;;;;;15.70;12.10;;;20.00;99.90;;;;;;5075015;28;20116;-74
2021/06/17 02:25:13;;;;;;;16.00;12.10;;;20.00;99.90;;;;;;5074500;28;20069;-73
2021/06/17 02:27:40;;;;;;;16.63;12.40;;;20.00;99.90;;;;;;5073256;28;20058;-73
2021/06/17 02:30:09;;;;;;;18.42;12.07;;;19.90;99.90;;;;;;5073462;28;20033;-74
2021/06/17 02:32:39;;;;;;;18.08;12.52;;;19.90;99.90;;;;;;5074591;28;20020;-73
2021/06/17 02:35:07;;;;;;;14.38;12.18;;;19.90;99.90;;;;;;5074010;28;20050;-73
2021/06/17 02:37:35;;;;;;;15.43;11.98;;;19.90;99.90;;;;;;5073594;28;20385;-74
2021/06/17 02:40:01;;;;;;;14.90;12.65;;;19.80;99.90;;;;;;5074450;28;20025;-74
2021/06/17 02:42:28;;;;;;;15.75;11.98;;;19.70;99.90;;;;;;5074685;28;20062;-74
2021/06/17 02:44:54;;;;;;;14.57;12.07;;;19.70;99.90;;;;;;5073194;28;20078;-75
2021/06/17 02:47:20;;;;;;;15.23;12.60;;;19.70;99.90;;;;;;5074628;28;20366;-74
2021/06/17 02:49:47;;;;;;;14.20;12.60;;;19.70;99.90;;;;;;5074561;28;20069;-74
2021/06/17 02:52:12;;;;;;;14.60;12.88;;;19.60;99.90;;;;;;5073104;28;20073;-74
2021/06/17 02:54:38;;;;;;;15.90;13.07;;;19.60;99.90;;;;;;5074420;28;20028;-74
2021/06/17 02:57:17;;;;;;;14.63;12.63;;;19.70;99.90;;;;;;5074462;28;20036;-74
2021/06/17 03:00:06;;;;;;;13.32;11.93;;;19.70;99.90;;;;;;5072952;28;20021;-74
2021/06/17 03:02:47;;;;;;;13.98;12.13;;;19.80;99.90;;;;;;5073819;28;20016;-75
2021/06/17 03:05:20;;;;;;;13.95;11.60;;;19.80;99.90;;;;;;5088917;28;20020;-74
2021/06/17 03:08:25;;;;;;;16.65;11.90;;;19.80;99.90;;;;;;5074045;28;20466;-74
2021/06/17 03:10:54;;;;;;;18.58;12.23;;;19.70;99.90;;;;;;5073690;28;20045;-74
2021/06/17 03:13:23;;;;;;;17.88;13.85;;;19.60;99.90;;;;;;5073709;28;20082;-73
2021/06/17 03:15:50;;;;;;;13.52;12.23;;;19.60;99.90;;;;;;5074123;28;20458;-74
2021/06/17 03:18:18;;;;;;;15.20;12.55;;;19.60;99.90;;;;;;5072489;28;20063;-74
2021/06/17 03:20:44;;;;;;;20.23;12.93;;;19.50;99.90;;;;;;5073852;28;20021;-74
2021/06/17 03:23:15;;;;;;;20.42;13.25;;;19.40;99.90;;;;;;5073588;28;20492;-74
2021/06/17 03:25:44;;;;;;;15.18;13.32;;;19.40;99.90;;;;;;5074119;28;20052;-75
2021/06/17 03:28:13;;;;;;;15.38;13.18;;;19.40;99.90;;;;;;5072619;28;20032;-74
2021/06/17 03:30:45;;;;;;;18.08;13.75;;;19.50;99.90;;;;;;5072599;28;20432;-74
2021/06/17 03:33:11;;;;;;;17.80;13.70;;;19.60;99.90;;;;;;5074003;28;20025;-74
2021/06/17 03:35:39;;;;;;;18.58;13.20;;;19.60;99.90;;;;;;5088752;28;20463;-74
2021/06/17 03:38:07;;;;;;;18.08;13.65;;;19.50;99.90;;;;;;5073965;28;20034;-74
2021/06/17 03:40:33;;;;;;;19.00;13.57;;;19.60;99.90;;;;;;5073692;28;20017;-75
2021/06/17 03:43:00;;;;;;;21.80;13.88;;;19.60;99.90;;;;;;5088989;28;20024;-73
2021/06/17 03:45:27;;;;;;;14.43;12.90;;;19.60;99.90;;;;;;5073351;28;20537;-74
2021/06/17 03:47:54;;;;;;;18.05;11.93;;;19.60;99.90;;;;;;5089402;28;20472;-74
2021/06/17 03:50:23;;;;;;;18.35;13.52;;;19.70;99.90;;;;;;5072275;28;20029;-74
2021/06/17 03:52:50;;;;;;;15.43;13.02;;;19.70;99.90;;;;;;5072693;28;20020;-74
2021/06/17 03:55:17;;;;;;;22.30;13.43;;;19.70;99.90;;;;;;5072577;28;20017;-74
2021/06/17 03:57:45;;;;;;;20.85;13.30;;;19.80;99.90;;;;;;5073745;28;20100;-74
2021/06/17 04:00:12;;;;;;;14.93;13.00;;;19.90;99.90;;;;;;5073775;28;20074;-74
2021/06/17 04:02:38;;;;;;;18.25;13.85;;;19.90;99.90;;;;;;5073708;28;20024;-74
2021/06/17 04:05:05;;;;;;;17.20;12.70;;;20.00;99.90;;;;;;5072539;28;20021;-74
2021/06/17 04:07:34;;;;;;;14.27;12.48;;;20.10;99.90;;;;;;5073180;28;20025;-74
2021/06/17 04:10:00;;;;;;;14.95;12.20;;;20.10;99.90;;;;;;5073666;28;20024;-75
2021/06/17 04:12:29;;;;;;;14.07;12.15;;;20.20;99.90;;;;;;5071923;28;20406;-74
2021/06/17 04:14:58;;;;;;;16.58;12.82;;;20.10;99.90;;;;;;5073279;28;20017;-74
2021/06/17 04:17:28;;;;;;;17.58;12.27;;;20.30;99.90;;;;;;5074862;28;20029;-74
2021/06/17 04:19:55;;;;;;;14.48;12.10;;;20.40;99.90;;;;;;5076335;28;20041;-73
2021/06/17 04:22:23;;;;;;;15.52;11.82;;;20.70;99.90;;;;;;5077294;28;20460;-74
2021/06/17 04:24:56;;;;;;;14.07;11.75;;;20.70;99.90;;;;;;5077246;28;20458;-74
2021/06/17 04:27:23;;;;;;;15.00;11.73;;;20.70;99.90;;;;;;5076870;28;20082;-74
2021/06/17 04:29:51;;;;;;;13.23;11.75;;;20.90;99.90;;;;;;5075736;28;20512;-74
2021/06/17 04:32:17;;;;;;;14.90;11.10;;;21.20;99.90;;;;;;5077448;28;20021;-74
2021/06/17 04:34:44;;;;;;;13.90;10.85;;;21.60;99.90;;;;;;5076523;28;20110;-74
2021/06/17 04:37:14;;;;;;;15.18;10.02;;;22.30;99.90;;;;;;5075391;28;20052;-75
2021/06/17 04:39:40;;;;;;;11.23;10.13;;;22.70;99.90;;;;;;5076469;28;20074;-74
2021/06/17 04:42:08;;;;;;;15.23;9.82;;;23.80;99.90;;;;;;5076732;28;20474;-75
2021/06/17 04:44:37;;;;;;;11.45;9.13;;;25.10;99.90;;;;;;5076634;28;20350;-75
2021/06/17 04:47:04;;;;;;;12.70;8.70;;;25.40;99.90;;;;;;5076898;28;20074;-74
2021/06/17 04:49:33;;;;;;;11.02;8.60;;;26.30;99.90;;;;;;5076549;28;20485;-75
2021/06/17 04:52:01;;;;;;;10.80;9.30;;;27.20;99.90;;;;;;5076536;28;20025;-75
2021/06/17 04:54:26;;;;;;;9.30;8.25;;;27.50;99.90;;;;;;5076346;28;20108;-75
2021/06/17 04:56:52;;;;;;;12.23;8.13;;;27.80;99.90;;;;;;5075518;28;20112;-73
2021/06/17 04:59:17;;;;;;;10.75;8.25;;;27.80;99.90;;;;;;5076160;28;20063;-72
2021/06/17 05:01:43;;;;;;;9.30;7.78;;;28.40;99.90;;;;;;5076638;28;20107;-72
2021/06/17 05:04:10;;;;;;;9.27;8.30;;;28.20;99.90;;;;;;5076323;28;20028;-75
2021/06/17 05:06:40;;;;;;;9.77;7.72;;;28.70;99.90;;;;;;5076508;28;20027;-74
2021/06/17 05:11:53;;;;;;;9.77;7.93;;;28.80;99.90;;;;;;5075806;28;20035;-75
2021/06/17 05:14:19;;;;;;;11.65;7.97;;;28.50;99.90;;;;;;5076115;28;20381;-75
2021/06/17 05:16:45;;;;;;;9.95;7.32;;;29.20;99.90;;;;;;5076294;28;20021;-69
2021/06/17 05:19:10;;;;;;;11.07;7.70;;;28.90;99.90;;;;;;5074556;28;20371;-70
2021/06/17 05:21:36;;;;;;;9.85;7.38;;;29.20;99.90;;;;;;5075964;28;20068;-70
2021/06/17 05:24:02;;;;;;;8.88;7.13;;;29.60;99.90;;;;;;5075650;28;20082;-70
2021/06/17 05:26:28;;;;;;;9.80;6.82;;;30.20;99.50;;;;;;5074901;28;20422;-70
2021/06/17 05:28:54;;;;;;;11.00;7.32;;;30.00;99.10;;;;;;5073942;28;20055;-70
2021/06/17 05:31:23;;;;;;;10.18;7.13;;;29.80;99.80;;;;;;5076059;28;20013;-70
2021/06/17 05:33:49;;;;;;;8.32;6.47;;;30.40;98.50;;;;;;5075620;28;20048;-71
2021/06/17 05:36:15;;;;;;;10.80;6.90;;;30.90;98.70;;;;;;5074683;28;20060;-69
2021/06/17 05:38:41;;;;;;;12.63;6.80;;;31.70;97.40;;;;;;5075413;28;20500;-70
2021/06/17 05:41:06;;;;;;;8.80;6.75;;;31.40;96.90;;;;;;5075902;28;20033;-70
2021/06/17 05:43:32;;;;;;;9.75;6.43;;;31.60;96.90;;;;;;5075808;28;20103;-70
2021/06/17 05:45:58;;;;;;;11.15;6.55;;;32.30;95.30;;;;;;5074340;28;20497;-70
2021/06/17 05:48:24;;;;;;;14.10;6.53;;;32.40;93.90;;;;;;5075463;28;20031;-70
2021/06/17 05:50:49;;;;;;;9.43;6.68;;;32.30;93.80;;;;;;5075136;28;20017;-70
2021/06/17 05:53:15;;;;;;;8.90;5.97;;;32.40;92.60;;;;;;5074145;28;20504;-70
2021/06/17 05:55:41;;;;;;;7.60;6.15;;;32.10;93.40;;;;;;5075473;28;20111;-68
2021/06/17 05:58:07;;;;;;;6.97;5.82;;;32.30;93.60;;;;;;5057635;28;20150;-70
2021/06/17 06:00:32;;;;;;;10.45;6.53;;;32.70;92.70;;;;;;5075016;28;20021;-70
2021/06/17 06:02:58;;;;;;;7.72;6.45;;;32.80;92.00;;;;;;5074952;28;20042;-70
2021/06/17 06:05:24;;;;;;;8.45;6.07;;;32.50;92.50;;;;;;5090337;28;20367;-69
2021/06/17 06:07:59;;;;;;;9.10;5.45;;;33.20;91.80;;;;;;5082288;28;20485;-70
2021/06/17 06:10:24;;;;;;;6.38;5.57;;;33.20;91.60;;;;;;5072666;28;20103;-68
2021/06/17 06:12:50;;;;;;;7.78;6.00;;;33.80;90.30;;;;;;5072799;28;20446;-70
2021/06/17 06:15:15;;;;;;;6.25;5.60;;;34.20;88.00;;;;;;5073828;28;20033;-70
2021/06/17 06:17:41;;;;;;;7.05;5.50;;;34.20;85.00;;;;;;5073573;28;20043;-71
2021/06/17 06:20:07;;;;;;;8.68;5.78;;;33.90;85.70;;;;;;5074379;28;20020;-71
2021/06/17 06:22:33;;;;;;;8.93;5.63;;;33.90;84.10;;;;;;5090929;28;20106;-68
2021/06/17 06:24:59;;;;;;;7.70;5.63;;;33.80;83.30;;;;;;5073338;28;20131;-70
2021/06/17 06:27:24;;;;;;;7.63;6.05;;;34.60;82.70;;;;;;5071513;28;20548;-70
2021/06/17 06:29:50;;;;;;;6.70;5.47;;;34.50;81.20;;;;;;5070507;28;20024;-70
2021/06/17 06:32:16;;;;;;;7.78;5.70;;;34.30;81.10;;;;;;5070988;28;20426;-67
2021/06/17 06:34:41;;;;;;;10.98;5.47;;;34.20;81.60;;;;;;5071495;28;20046;-70
2021/06/17 06:37:07;;;;;;;9.55;5.70;;;34.70;78.90;;;;;;5054928;28;20055;-68
2021/06/17 06:39:33;;;;;;;6.25;5.40;;;34.30;79.60;;;;;;5069293;28;20023;-71
2021/06/17 06:41:58;;;;;;;7.50;5.82;;;34.80;79.40;;;;;;5072315;28;20082;-70
2021/06/17 06:44:24;;;;;;;6.50;5.35;;;34.80;77.20;;;;;;5071221;28;20028;-70
2021/06/17 06:46:51;;;;;;;9.70;5.82;;;35.20;74.90;;;;;;5071569;28;20400;-71
2021/06/17 06:49:17;;;;;;;9.52;5.82;;;34.90;75.00;;;;;;5073053;28;20023;-70
2021/06/17 06:51:43;;;;;;;8.95;5.82;;;35.00;75.50;;;;;;5072546;28;20028;-68
2021/06/17 06:54:10;;;;;;;6.00;5.20;;;34.40;76.00;;;;;;5065440;28;20367;-71
2021/06/17 06:56:36;;;;;;;9.05;5.55;;;35.00;75.30;;;;;;5053046;28;20031;-71
2021/06/17 06:59:02;;;;;;;8.60;5.70;;;35.50;74.40;;;;;;5069887;28;20021;-70
2021/06/17 07:01:28;;;;;;;5.82;5.28;;;35.90;74.10;;;;;;5072637;28;20077;-70
2021/06/17 07:03:53;;;;;;;7.75;5.57;;;36.00;72.50;;;;;;5071358;28;20105;-68
2021/06/17 07:06:19;;;;;;;8.35;5.43;;;36.00;69.90;;;;;;5070077;28;20189;-74
2021/06/17 07:08:44;;;;;;;7.20;5.13;;;35.60;72.40;;;;;;5070821;28;20043;-73
2021/06/17 07:11:10;;;;;;;6.03;5.18;;;35.90;72.20;;;;;;5071085;28;20028;-74
2021/06/17 07:13:35;;;;;;;7.93;5.15;;;35.60;71.70;;;;;;5072660;28;20114;-74
2021/06/17 07:16:03;;;;;;;8.55;5.38;;;35.70;71.80;;;;;;5069773;28;20037;-73
2021/06/17 07:18:29;;;;;;;10.35;5.30;;;35.90;70.40;;;;;;5072120;28;20434;-73
2021/06/17 07:20:54;;;;;;;7.75;5.50;;;36.70;70.00;;;;;;5072711;28;20099;-73
2021/06/17 07:23:20;;;;;;;5.38;4.88;;;36.60;69.10;;;;;;5072844;28;20425;-74
2021/06/17 07:25:46;;;;;;;11.02;5.68;;;36.10;67.30;;;;;;5071675;28;20103;-73
2021/06/17 07:28:12;;;;;;;6.65;5.38;;;36.00;66.60;;;;;;5070629;28;20111;-73
2021/06/17 07:30:37;;;;;;;8.18;5.20;;;35.10;69.10;;;;;;5084784;28;20381;-73
2021/06/17 07:33:03;;;;;;;6.22;5.20;;;35.60;69.50;;;;;;5071693;28;20033;-73
2021/06/17 07:35:28;;;;;;;8.15;4.95;;;35.90;67.50;;;;;;5073764;28;20076;-73
2021/06/17 07:37:54;;;;;;;5.57;4.97;;;36.30;65.80;;;;;;5053993;28;20024;-73
2021/06/17 07:40:21;;;;;;;6.07;5.00;;;35.70;64.70;;;;;;5071234;28;20054;-73
2021/06/17 07:42:48;;;;;;;6.03;4.78;;;35.80;66.50;;;;;;5072180;28;20025;-74
2021/06/17 07:45:14;;;;;;;7.10;4.68;;;36.30;65.30;;;;;;5071211;28;20029;-73
2021/06/17 07:47:40;;;;;;;11.20;4.80;;;36.50;61.90;;;;;;5072572;28;20097;-73
2021/06/17 07:50:08;;;;;;;5.15;4.65;;;36.20;61.70;;;;;;5072148;28;20081;-73
2021/06/17 07:52:34;;;;;;;10.57;4.72;;;36.20;62.50;;;;;;5075047;28;20033;-73
2021/06/17 07:55:00;;;;;;;9.23;4.95;;;36.60;61.20;;;;;;5077118;28;20039;-74
2021/06/17 07:57:25;;;;;;;7.65;4.40;;;37.20;61.50;;;;;;5076007;28;20470;-73
2021/06/17 07:59:51;;;;;;;5.47;4.28;;;37.30;58.90;;;;;;5076838;28;20585;-74
2021/06/17 08:02:17;;;;;;;4.75;4.35;;;37.40;58.60;;;;;;5088863;28;20051;-74
2021/06/17 08:04:42;;;;;;;5.88;4.55;;;37.40;57.50;;;;;;5077164;28;20028;-73
2021/06/17 08:07:08;;;;;;;6.63;4.32;;;37.00;55.60;;;;;;5077663;28;20025;-73
2021/06/17 08:09:34;;;;;;;9.95;4.60;;;36.80;54.90;;;;;;5076374;28;20028;-74
2021/06/17 08:11:59;;;;;;;5.38;4.10;;;36.70;54.70;;;;;;5075242;28;20066;-73
2021/06/17 08:14:25;;;;;;;6.07;4.10;;;37.10;55.00;;;;;;5076246;28;20024;-74
2021/06/17 08:16:52;;;;;;;7.15;4.40;;;36.90;55.10;;;;;;5075393;28;20020;-74
2021/06/17 08:19:19;;;;;;;4.93;4.00;;;36.30;55.10;;;;;;5076205;28;20020;-74
2021/06/17 08:21:45;;;;;;;7.57;4.68;;;36.60;55.60;;;;;;5076171;28;20107;-74
2021/06/17 08:24:11;;;;;;;9.95;4.53;;;36.70;55.00;;;;;;5074894;28;20437;-73
2021/06/17 08:26:36;;;;;;;11.82;4.63;;;37.00;54.70;;;;;;5075724;28;20402;-74
2021/06/17 08:29:03;;;;;;;9.13;4.38;;;37.50;54.60;;;;;;5074631;28;20393;-73
2021/06/17 08:31:29;;;;;;;7.07;3.65;;;37.90;53.20;;;;;;5076036;28;20043;-73
2021/06/17 08:33:56;;;;;;;4.50;4.10;;;37.70;52.50;;;;;;5091831;28;20389;-73
2021/06/17 08:36:22;;;;;;;5.50;3.63;;;37.60;52.30;;;;;;5075066;28;20105;-74
2021/06/17 08:38:47;;;;;;;4.90;3.88;;;36.80;53.30;;;;;;5074112;28;20426;-73
2021/06/17 08:41:14;;;;;;;6.00;4.45;;;36.60;53.50;;;;;;5087390;28;20024;-73
2021/06/17 08:43:40;;;;;;;7.93;4.25;;;36.90;52.80;;;;;;5058317;28;20101;-73
2021/06/17 08:46:05;;;;;;;5.75;3.90;;;37.20;52.40;;;;;;5076183;28;20380;-74
2021/06/17 08:48:31;;;;;;;5.75;4.10;;;36.60;53.40;;;;;;5074155;28;20078;-73
2021/06/17 08:50:57;;;;;;;7.38;3.55;;;37.10;52.50;;;;;;5074349;28;20618;-73
2021/06/17 08:53:24;;;;;;;4.32;3.83;;;37.30;52.00;;;;;;5075131;28;20029;-73
2021/06/17 08:55:50;;;;;;;8.90;4.20;;;37.40;52.40;;;;;;5074720;28;20020;-73
2021/06/17 08:58:16;;;;;;;5.72;3.75;;;36.80;51.20;;;;;;5073872;28;20112;-73
2021/06/17 09:00:46;;;;;;;7.03;3.90;;;36.60;50.70;;;;;;5075844;28;20103;-73
2021/06/17 09:03:16;;;;;;;7.80;4.00;;;36.90;51.60;;;;;;5073443;28;20016;-73
2021/06/17 09:05:43;;;;;;;7.45;3.75;;;38.20;49.40;;;;;;5075788;28;20033;-73
2021/06/17 09:08:11;;;;;;;9.10;4.15;;;38.30;49.70;;;;;;5075082;28;20024;-73
2021/06/17 09:10:42;;;;;;;6.32;3.78;;;38.60;48.40;;;;;;5074301;28;20430;-73
2021/06/17 09:13:09;;;;;;;5.90;4.65;;;38.30;49.00;;;;;;5075448;28;20059;-73
2021/06/17 09:15:42;;;;;;;5.60;3.42;;;38.50;48.00;;;;;;5075084;28;20078;-74
2021/06/17 09:20:56;;;;;;;6.43;3.65;;;38.80;46.90;;;;;;5103654;27;20138;-72
2021/06/17 09:29:03;;;;;;;5.40;4.22;;;38.70;47.20;;;;;;5124377;27;20182;-73
2021/06/17 09:31:36;;;;;;;7.78;4.20;;;38.60;48.20;;;;;;5091022;28;20028;-73
2021/06/17 09:34:07;;;;;;;6.43;3.83;;;39.10;47.10;;;;;;5075208;28;20017;-73
2021/06/17 09:36:34;;;;;;;6.93;4.00;;;39.30;45.70;;;;;;5094240;28;20032;-73
2021/06/17 09:39:08;;;;;;;6.43;3.88;;;39.20;46.10;;;;;;5100586;28;20478;-73
2021/06/17 09:41:45;;;;;;;4.93;3.92;;;38.90;45.40;;;;;;5104374;28;20549;-73
2021/06/17 09:44:32;;;;;;;6.68;3.70;;;38.30;47.10;;;;;;5089800;28;20020;-73
2021/06/17 09:47:15;;;;;;;8.27;3.95;;;38.30;46.50;;;;;;5071024;28;20025;-73
2021/06/17 09:49:43;;;;;;;5.80;4.28;;;38.70;46.50;;;;;;5096149;28;20031;-73
2021/06/17 09:52:10;;;;;;;8.88;4.30;;;38.90;45.40;;;;;;5092439;28;20026;-73
2021/06/17 09:54:39;;;;;;;8.55;4.22;;;38.80;45.30;;;;;;5104601;28;20383;-73
2021/06/17 09:57:12;;;;;;;9.32;4.32;;;39.70;45.40;;;;;;5108265;28;20020;-73
2021/06/17 09:59:46;;;;;;;5.53;4.00;;;39.40;45.00;;;;;;5083596;28;20119;-73
2021/06/17 10:02:21;;;;;;;7.45;3.75;;;40.20;44.50;;;;;;5105721;28;20081;-73
2021/06/17 10:04:47;;;;;;;5.18;4.25;;;40.20;44.60;;;;;;5098173;28;20441;-73
2021/06/17 10:07:13;;;;;;;4.30;3.90;;;39.70;44.20;;;;;;5103953;28;20115;-73
2021/06/17 10:09:39;;;;;;;11.65;4.75;;;39.60;44.70;;;;;;5091761;28;20047;-73
2021/06/17 10:12:05;;;;;;;4.65;4.13;;;39.60;43.90;;;;;;5089763;28;20020;-73
2021/06/17 10:14:31;;;;;;;13.40;4.50;;;39.90;43.20;;;;;;5080140;28;20158;-73
2021/06/17 10:16:59;;;;;;;4.90;3.88;;;39.60;43.80;;;;;;5096624;28;20515;-73
2021/06/17 10:19:25;;;;;;;4.70;4.05;;;39.10;43.70;;;;;;5091214;28;20086;-73
2021/06/17 10:21:52;;;;;;;4.15;3.75;;;38.70;43.90;;;;;;5092860;28;20461;-73
2021/06/17 10:24:25;;;;;;;6.65;4.10;;;38.90;45.90;;;;;;5089863;28;20020;-73
2021/06/17 10:26:55;;;;;;;6.05;4.15;;;39.30;43.70;;;;;;5089004;28;20040;-73
2021/06/17 10:29:35;;;;;;;4.38;3.50;;;38.50;44.60;;;;;;5107601;28;20024;-73
2021/06/17 10:32:01;;;;;;;5.05;4.10;;;38.40;45.10;;;;;;5094023;28;20028;-73
2021/06/17 10:34:30;;;;;;;4.45;3.97;;;38.30;45.80;;;;;;5097602;28;20063;-73
2021/06/17 10:42:40;;;;;;;5.53;4.15;;;38.80;44.20;;;;;;5110736;27;20133;-73
2021/06/17 10:45:10;;;;;;;6.03;4.28;;;38.60;43.70;;;;;;5089660;28;20052;-73
2021/06/17 10:50:42;;;;;;;9.32;4.65;;;37.80;45.30;;;;;;5141964;27;20397;-72
2021/06/17 10:53:39;;;;;;;5.05;4.63;;;36.80;46.30;;;;;;5107892;28;20105;-72
2021/06/17 10:56:21;;;;;;;9.55;4.55;;;36.50;46.50;;;;;;5107564;28;20024;-72
2021/06/17 10:58:51;;;;;;;7.78;4.95;;;36.20;47.40;;;;;;5086412;28;20176;-72
2021/06/17 11:01:27;;;;;;;6.30;5.22;;;36.30;47.00;;;;;;5109979;28;20547;-72
2021/06/17 11:04:11;;;;;;;6.75;5.05;;;36.10;47.50;;;;;;5090819;28;20024;-72
2021/06/17 11:09:47;;;;;;;6.53;4.88;;;36.20;47.20;;;;;;5109849;27;20133;-72
2021/06/17 11:14:55;;;;;;;5.25;4.78;;;36.00;47.50;;;;;;5130224;27;20113;-72
2021/06/17 11:20:16;;;;;;;8.18;5.00;;;36.00;48.10;;;;;;5114918;27;20575;-72
2021/06/17 11:22:48;;;;;;;10.25;5.28;;;36.20;47.20;;;;;;5089787;28;20024;-72
2021/06/17 11:25:21;;;;;;;6.63;4.88;;;36.40;47.60;;;;;;5090418;28;20027;-72
2021/06/17 11:27:55;;;;;;;;;;;36.20;47.70;;;;;;5089330;28;20043;-72
2021/06/17 11:30:37;;;;;;;8.70;4.70;;;36.60;47.90;;;;;;5089454;28;20375;-72
2021/06/17 11:36:05;;;;;;;5.07;4.63;;;35.80;47.40;;;;;;5143724;27;20143;-69
2021/06/17 11:38:34;;;;;;;8.75;4.30;;;36.00;47.30;;;;;;5110231;28;20024;-69
2021/06/17 11:41:08;;;;;;;7.28;4.40;;;36.10;47.40;;;;;;5103151;28;20036;-69
2021/06/17 11:43:33;;;;;;;5.97;4.28;;;36.30;46.50;;;;;;5103251;28;20016;-70
2021/06/17 11:45:59;;;;;;;5.22;4.55;;;36.20;46.20;;;;;;5089473;28;20028;-69
2021/06/17 11:48:26;;;;;;;8.05;4.72;;;35.90;46.20;;;;;;5095264;28;20023;-69
2021/06/17 11:50:54;;;;;;;5.85;4.80;;;36.00;46.70;;;;;;5096571;28;20409;-69
2021/06/17 11:53:21;;;;;;;5.32;4.50;;;35.90;46.50;;;;;;5090389;28;20024;-69
2021/06/17 11:55:50;;;;;;;7.65;4.78;;;36.10;46.40;;;;;;5094030;28;20020;-69
2021/06/17 11:58:18;;;;;;;5.97;3.92;;;36.50;46.60;;;;;;5097595;28;20047;-69
2021/06/17 12:00:44;;;;;;;6.72;3.60;;;36.20;44.30;;;;;;5098427;28;20073;-70
2021/06/17 12:03:20;;;;;;;7.85;4.32;;;36.30;44.70;;;;;;5096102;28;20024;-71
2021/06/17 12:05:47;;;;;;;4.55;4.05;;;35.90;44.10;;;;;;5103467;28;20028;-72
2021/06/17 12:08:12;;;;;;;9.55;4.47;;;36.10;44.50;;;;;;5102484;28;20052;-72
2021/06/17 12:10:41;;;;;;;8.18;4.28;;;36.20;43.70;;;;;;5089894;28;20110;-71
2021/06/17 12:13:09;;;;;;;5.53;4.45;;;36.40;44.10;;;;;;5088873;28;20362;-72
2021/06/17 12:15:39;;;;;;;7.72;4.28;;;36.30;44.30;;;;;;5095855;28;20017;-72
2021/06/17 12:18:10;;;;;;;7.38;4.20;;;36.10;44.50;;;;;;5090141;28;20095;-72
2021/06/17 12:20:38;;;;;;;5.28;4.20;;;36.10;43.90;;;;;;5089579;28;20016;-72
2021/06/17 12:23:10;;;;;;;8.10;4.32;;;36.20;42.90;;;;;;5078281;28;20024;-72
2021/06/17 12:25:39;;;;;;;8.48;4.10;;;36.40;43.90;;;;;;5100893;28;20024;-71
2021/06/17 12:28:07;;;;;;;6.13;4.07;;;36.40;44.70;;;;;;5099595;28;20016;-72
2021/06/17 12:30:41;;;;;;;5.60;3.97;;;36.40;44.40;;;;;;5094360;28;20067;-72
2021/06/17 12:33:25;;;;;;;5.55;3.70;;;36.30;43.60;;;;;;5091307;28;20465;-72
2021/06/17 12:36:15;;;;;;;6.57;3.67;;;36.10;43.40;;;;;;5096089;28;20044;-72
2021/06/17 12:38:41;;;;;;;14.52;4.05;;;36.10;43.00;;;;;;5102468;28;20027;-71
2021/06/17 12:41:22;;;;;;;6.57;3.80;;;36.10;43.40;;;;;;5107893;28;20399;-71
2021/06/17 12:46:26;;;;;;;7.27;3.77;;;35.90;42.70;;;;;;5126136;27;20401;-71
2021/06/17 12:52:14;;;;;;;8.85;4.00;;;36.00;43.20;;;;;;5094742;28;20024;-71
2021/06/17 12:54:32;;;;;;;6.28;3.38;;;35.90;43.30;;;;;;5109144;28;20032;-72
2021/06/17 12:57:03;;;;;;;6.28;3.38;;;35.90;42.50;;;;;;5092363;28;20024;-71
2021/06/17 13:02:10;;;;;;;4.20;3.80;;;35.80;42.90;;;;;;5116294;27;20133;-72
2021/06/17 13:04:36;;;;;;;5.18;3.80;;;36.30;43.70;;;;;;5110453;28;20034;-72
2021/06/17 13:07:20;;;;;;;7.00;3.55;;;36.40;41.50;;;;;;5106661;28;20570;-72
2021/06/17 13:09:46;;;;;;;3.65;3.35;;;36.10;41.80;;;;;;5109718;28;20056;-72
2021/06/17 13:12:18;;;;;;;4.65;3.50;;;35.90;41.70;;;;;;5103169;28;20052;-71
2021/06/17 13:15:01;;;;;;;10.77;3.95;;;35.70;42.40;;;;;;5089989;28;20359;-72
2021/06/17 13:17:27;;;;;;;6.30;3.10;;;35.60;41.20;;;;;;5105369;28;20044;-71
2021/06/17 13:19:54;;;;;;;8.30;3.03;;;35.60;40.90;;;;;;5109168;28;20090;-71
2021/06/17 13:22:20;;;;;;;5.43;3.42;;;36.00;39.90;;;;;;5093692;28;20028;-71
2021/06/17 13:24:47;;;;;;;8.10;3.50;;;35.90;39.90;;;;;;5107618;28;20024;-72